Time;durP1;ratioP1;P1;durP2;ratioP2;P2;SDS_P1;SDS_P2;PMS_P1;PMS_P2;Temp;Humidity;BMP_temperature;BMP_pressure;BME280_temperature;BME280_humidity;BME280_pressure;Samples;Min_cycle;Max_cycle;Signal;HPM_P1;HPM_P2
2021/10/26 00:02:21;;;;;;;27.02;15.23;;;;;;;;;;5090486;28;20024;-68
2021/10/26 00:04:47;;;;;;;27.20;16.58;;;;;;;;;;5090284;28;20020;-67
2021/10/26 00:07:13;;;;;;;30.10;15.73;;;;;;;;;;5090112;28;20369;-68
2021/10/26 00:09:40;;;;;;;28.23;16.00;;;;;;;;;;5090502;28;20036;-66
2021/10/26 00:12:06;;;;;;;27.98;16.13;;;;;;;;;;5090447;28;20027;-66
2021/10/26 00:14:32;;;;;;;30.15;17.38;;;;;;;;;;5090317;28;20036;-67
2021/10/26 00:16:58;;;;;;;29.35;15.52;;;;;;;;;;5093254;28;20116;-67
2021/10/26 00:19:25;;;;;;;30.50;15.93;;;;;;;;;;5094013;28;20044;-67
2021/10/26 00:21:51;;;;;;;27.30;15.18;;;;;;;;;;5094040;28;20510;-67
2021/10/26 00:24:17;;;;;;;28.90;15.35;;;;;;;;;;5094074;28;20052;-66
2021/10/26 00:26:43;;;;;;;27.25;15.23;;;;;;;;;;5093782;28;20057;-67
2021/10/26 00:29:10;;;;;;;29.67;15.90;;;;;;;;;;5093810;28;20024;-66
2021/10/26 00:31:36;;;;;;;28.58;17.00;;;;;;;;;;5094016;28;20412;-68
2021/10/26 00:34:02;;;;;;;30.45;15.80;;;;;;;;;;5093678;28;20035;-69
2021/10/26 00:36:29;;;;;;;28.30;16.30;;;;;;;;;;5093480;28;20020;-67
2021/10/26 00:38:55;;;;;;;28.58;16.02;;;;;;;;;;5093854;28;20452;-67
2021/10/26 00:41:21;;;;;;;27.83;16.52;;;;;;;;;;5093467;28;20055;-66
2021/10/26 00:43:47;;;;;;;29.40;15.50;;;;;;;;;;5093409;28;20077;-67
2021/10/26 00:46:13;;;;;;;29.27;15.90;;;;;;;;;;5093061;28;20028;-67
2021/10/26 00:48:39;;;;;;;29.60;16.70;;;;;;;;;;5093112;28;20442;-68
2021/10/26 00:51:08;;;;;;;25.65;15.63;;;;;;;;;;5093127;28;20024;-68
2021/10/26 00:53:34;;;;;;;28.13;16.10;;;;;;;;;;5092982;28;20028;-67
2021/10/26 00:56:00;;;;;;;30.80;16.02;;;;;;;;;;5092781;28;20024;-66
2021/10/26 00:58:26;;;;;;;28.60;15.35;;;;;;;;;;5093314;28;20020;-67
2021/10/26 01:00:52;;;;;;;28.00;15.50;;;;;;;;;;5092577;28;20472;-67
2021/10/26 01:03:18;;;;;;;30.08;15.55;;;;;;;;;;5093006;28;20031;-67
2021/10/26 01:05:44;;;;;;;29.35;17.10;;;;;;;;;;5092518;28;20020;-67
2021/10/26 01:08:10;;;;;;;25.52;15.80;;;;;;;;;;5093083;28;20032;-67
2021/10/26 01:10:37;;;;;;;29.80;16.58;;;;;;;;;;5092805;28;20107;-68
2021/10/26 01:13:03;;;;;;;30.33;16.88;;;;;;;;;;5092833;28;20165;-67
2021/10/26 01:15:30;;;;;;;29.30;16.17;;;;;;;;;;5092211;28;20039;-66
2021/10/26 01:17:56;;;;;;;28.83;15.98;;;;;;;;;;5092404;28;20022;-70
2021/10/26 01:20:22;;;;;;;33.10;17.33;;;;;;;;;;5092532;28;20035;-67
2021/10/26 01:22:48;;;;;;;28.83;16.67;;;;;;;;;;5092885;28;20514;-67
2021/10/26 01:25:14;;;;;;;33.28;19.33;;;;;;;;;;5092647;28;20566;-67
2021/10/26 01:27:54;;;;;;;32.83;18.25;;;;;;;;;;5092320;28;20054;-69
2021/10/26 01:30:23;;;;;;;33.85;19.42;;;;;;;;;;5092943;28;20024;-64
2021/10/26 01:32:49;;;;;;;;;;;;;;;;;;5093068;28;20028;-66
2021/10/26 01:35:15;;;;;;;33.92;20.33;;;;;;;;;;5092276;28;20418;-67
2021/10/26 01:37:41;;;;;;;37.30;21.38;;;;;;;;;;5092119;28;20089;-68
2021/10/26 01:40:07;;;;;;;35.85;20.70;;;;;;;;;;5092303;28;20052;-68
2021/10/26 01:42:34;;;;;;;39.95;21.58;;;;;;;;;;5092326;28;20028;-67
2021/10/26 01:45:00;;;;;;;38.33;22.80;;;;;;;;;;5092182;28;20056;-67
2021/10/26 01:47:26;;;;;;;33.83;20.73;;;;;;;;;;5091797;28;20062;-66
2021/10/26 01:49:52;;;;;;;36.65;23.13;;;;;;;;;;5092043;28;20056;-67
2021/10/26 01:52:18;;;;;;;36.17;21.70;;;;;;;;;;5092030;28;20032;-66
2021/10/26 01:54:45;;;;;;;39.47;24.25;;;;;;;;;;5091672;28;20495;-68
2021/10/26 01:57:11;;;;;;;40.58;24.38;;;;;;;;;;5091668;28;20021;-67
2021/10/26 01:59:37;;;;;;;39.95;23.90;;;;;;;;;;5091723;28;20106;-66
2021/10/26 02:02:04;;;;;;;41.25;23.58;;;;;;;;;;5092352;28;20020;-66
2021/10/26 02:04:31;;;;;;;36.35;22.30;;;;;;;;;;5092169;28;20149;-67
2021/10/26 02:06:57;;;;;;;38.05;21.30;;;;;;;;;;5091975;28;20111;-66
2021/10/26 02:09:23;;;;;;;35.40;21.13;;;;;;;;;;5092063;28;20024;-66
2021/10/26 02:11:49;;;;;;;35.05;19.60;;;;;;;;;;5091807;28;20035;-65
2021/10/26 02:14:15;;;;;;;34.92;20.80;;;;;;;;;;5091556;28;20028;-68
2021/10/26 02:16:41;;;;;;;38.30;20.67;;;;;;;;;;5092063;28;20111;-67
2021/10/26 02:19:07;;;;;;;33.50;20.05;;;;;;;;;;5092054;28;20549;-67
2021/10/26 02:21:33;;;;;;;36.63;21.52;;;;;;;;;;5091963;28;20024;-67
2021/10/26 02:23:59;;;;;;;37.78;20.65;;;;;;;;;;5091492;28;20020;-68
2021/10/26 02:26:25;;;;;;;36.60;20.17;;;;;;;;;;5091426;28;20096;-68
2021/10/26 02:28:51;;;;;;;38.22;21.20;;;;;;;;;;5091437;28;20047;-67
2021/10/26 02:31:17;;;;;;;29.85;18.17;;;;;;;;;;5091337;28;20396;-66
2021/10/26 02:33:43;;;;;;;40.42;21.15;;;;;;;;;;5091080;28;20152;-68
2021/10/26 02:36:09;;;;;;;36.75;21.65;;;;;;;;;;5090150;28;20020;-67
2021/10/26 02:38:35;;;;;;;36.45;20.30;;;;;;;;;;5090719;28;20111;-68
2021/10/26 02:41:01;;;;;;;35.83;22.00;;;;;;;;;;5092449;28;20031;-67
2021/10/26 02:43:29;;;;;;;33.97;19.63;;;;;;;;;;5092353;28;20027;-68
2021/10/26 02:45:55;;;;;;;34.33;20.45;;;;;;;;;;5090874;28;20042;-68
2021/10/26 02:48:21;;;;;;;35.92;21.58;;;;;;;;;;5092177;28;20020;-67
2021/10/26 02:50:47;;;;;;;37.08;22.38;;;;;;;;;;5092277;28;20016;-67
2021/10/26 02:53:15;;;;;;;35.05;20.70;;;;;;;;;;5092262;28;20016;-67
2021/10/26 02:55:41;;;;;;;38.33;20.77;;;;;;;;;;5091933;28;20034;-65
2021/10/26 02:58:07;;;;;;;31.95;19.55;;;;;;;;;;5092119;28;20015;-67
2021/10/26 03:00:33;;;;;;;39.72;20.60;;;;;;;;;;5092298;28;20019;-66
2021/10/26 03:02:59;;;;;;;32.30;19.52;;;;;;;;;;5092146;28;20012;-67
2021/10/26 03:05:25;;;;;;;36.08;21.17;;;;;;;;;;5091992;28;20032;-67
2021/10/26 03:07:51;;;;;;;35.97;19.85;;;;;;;;;;5090750;28;20053;-67
2021/10/26 03:10:17;;;;;;;36.50;20.77;;;;;;;;;;5090834;28;20111;-65
2021/10/26 03:12:43;;;;;;;35.88;21.65;;;;;;;;;;5091914;28;20104;-65
2021/10/26 03:15:10;;;;;;;35.22;21.10;;;;;;;;;;5091634;28;20066;-65
2021/10/26 03:17:36;;;;;;;35.20;20.40;;;;;;;;;;5091773;28;20012;-65
2021/10/26 03:20:03;;;;;;;36.50;21.10;;;;;;;;;;5091837;28;20069;-65
2021/10/26 03:22:29;;;;;;;36.08;21.08;;;;;;;;;;5090563;28;20047;-65
2021/10/26 03:24:55;;;;;;;34.33;19.48;;;;;;;;;;5090441;28;20069;-65
2021/10/26 03:27:22;;;;;;;31.98;18.48;;;;;;;;;;5091724;28;20523;-65
2021/10/26 03:29:48;;;;;;;29.80;18.48;;;;;;;;;;5092073;28;20089;-65
2021/10/26 03:32:14;;;;;;;35.63;19.52;;;;;;;;;;5090477;28;20073;-66
2021/10/26 03:34:41;;;;;;;35.38;20.15;;;;;;;;;;5091555;28;20042;-66
2021/10/26 03:37:07;;;;;;;32.90;18.85;;;;;;;;;;5090335;28;20038;-66
2021/10/26 03:39:33;;;;;;;34.20;19.27;;;;;;;;;;5092030;28;20070;-66
2021/10/26 03:41:59;;;;;;;33.90;19.63;;;;;;;;;;5091780;28;20012;-65
2021/10/26 03:44:26;;;;;;;44.03;19.23;;;;;;;;;;5091975;28;20076;-65
2021/10/26 03:46:52;;;;;;;32.47;19.27;;;;;;;;;;5091585;28;20031;-65
2021/10/26 03:49:18;;;;;;;31.65;18.88;;;;;;;;;;5092695;28;20077;-65
2021/10/26 03:51:44;;;;;;;33.83;19.38;;;;;;;;;;5094540;28;20035;-65
2021/10/26 03:54:10;;;;;;;33.97;19.15;;;;;;;;;;5095971;28;20535;-65
2021/10/26 03:56:36;;;;;;;33.28;17.10;;;;;;;;;;5095623;28;20105;-66
2021/10/26 03:59:04;;;;;;;30.77;18.25;;;;;;;;;;5094566;28;20012;-66
2021/10/26 04:01:31;;;;;;;32.58;18.45;;;;;;;;;;5095797;28;20500;-65
2021/10/26 04:03:57;;;;;;;35.65;18.60;;;;;;;;;;5095415;28;20102;-65
2021/10/26 04:06:25;;;;;;;30.27;18.05;;;;;;;;;;5094447;28;20398;-66
2021/10/26 04:08:57;;;;;;;33.08;19.08;;;;;;;;;;5095617;28;20012;-65
2021/10/26 04:11:27;;;;;;;34.53;20.10;;;;;;;;;;5095764;28;20016;-66
2021/10/26 04:13:53;;;;;;;32.80;19.38;;;;;;;;;;5095287;28;20020;-65
2021/10/26 04:16:20;;;;;;;32.28;19.13;;;;;;;;;;5093949;28;20035;-65
2021/10/26 04:18:46;;;;;;;42.10;21.27;;;;;;;;;;5095499;28;20039;-66
2021/10/26 04:21:12;;;;;;;34.00;19.75;;;;;;;;;;5094058;28;20066;-66
2021/10/26 04:23:39;;;;;;;33.40;19.50;;;;;;;;;;5095156;28;20016;-66
2021/10/26 04:26:06;;;;;;;38.67;20.10;;;;;;;;;;5093132;28;20015;-67
2021/10/26 04:28:33;;;;;;;36.15;20.50;;;;;;;;;;5094710;28;20035;-68
2021/10/26 04:31:01;;;;;;;36.35;19.33;;;;;;;;;;5093539;28;20065;-67
2021/10/26 04:33:27;;;;;;;34.38;19.48;;;;;;;;;;5093791;28;20106;-66
2021/10/26 04:35:53;;;;;;;32.72;18.77;;;;;;;;;;5093278;28;20024;-67
2021/10/26 04:38:20;;;;;;;36.70;20.23;;;;;;;;;;5095073;28;20004;-66
2021/10/26 04:40:47;;;;;;;37.90;19.40;;;;;;;;;;5095039;28;20020;-66
2021/10/26 04:43:14;;;;;;;32.70;19.58;;;;;;;;;;5094654;28;20068;-67
2021/10/26 04:45:40;;;;;;;33.05;20.38;;;;;;;;;;5092771;28;20035;-66
2021/10/26 04:48:13;;;;;;;32.67;19.90;;;;;;;;;;5094803;28;20095;-65
2021/10/26 04:50:39;;;;;;;33.65;18.70;;;;;;;;;;5094523;28;20028;-65
2021/10/26 04:53:05;;;;;;;33.80;18.95;;;;;;;;;;5094456;28;20027;-65
2021/10/26 04:55:31;;;;;;;31.10;18.52;;;;;;;;;;5093715;28;20091;-65
2021/10/26 04:57:57;;;;;;;35.08;18.85;;;;;;;;;;5092394;28;20016;-66
2021/10/26 05:00:23;;;;;;;34.75;20.08;;;;;;;;;;5104533;22;20051;-66
2021/10/26 05:02:49;;;;;;;31.35;17.23;;;;;;;;;;5075340;28;20021;-66
2021/10/26 05:05:15;;;;;;;38.17;20.77;;;;;;;;;;5076199;28;20036;-66
2021/10/26 05:07:41;;;;;;;34.47;20.02;;;;;;;;;;5076047;28;20510;-66
2021/10/26 05:10:08;;;;;;;40.55;19.33;;;;;;;;;;5076272;28;20106;-65
2021/10/26 05:12:34;;;;;;;35.25;20.92;;;;;;;;;;5076785;28;20404;-66
2021/10/26 05:15:00;;;;;;;33.85;20.05;;;;;;;;;;5076027;28;20028;-67
2021/10/26 05:17:27;;;;;;;42.78;20.95;;;;;;;;;;5076013;28;20021;-67
2021/10/26 05:19:54;;;;;;;35.60;19.33;;;;;;;;;;5076173;28;20024;-64
2021/10/26 05:22:23;;;;;;;34.95;22.20;;;;;;;;;;5075872;28;20084;-67
2021/10/26 05:24:49;;;;;;;;;;;;;;;;;;5076409;28;20104;-65
2021/10/26 05:27:16;;;;;;;38.45;19.30;;;;;;;;;;5075820;28;19907;-67
2021/10/26 05:29:42;;;;;;;34.50;19.83;;;;;;;;;;5075466;28;20024;-66
2021/10/26 05:32:09;;;;;;;35.92;18.55;;;;;;;;;;5075652;28;20047;-66
2021/10/26 05:34:38;;;;;;;36.85;19.17;;;;;;;;;;5075026;28;20089;-64
2021/10/26 05:37:05;;;;;;;33.55;18.80;;;;;;;;;;5074745;28;20077;-64
2021/10/26 05:39:32;;;;;;;36.05;19.88;;;;;;;;;;5074858;28;20028;-65
2021/10/26 05:41:58;;;;;;;32.90;19.45;;;;;;;;;;5076475;28;20119;-66
2021/10/26 05:44:24;;;;;;;32.83;18.67;;;;;;;;;;5075430;28;20051;-63
2021/10/26 05:46:51;;;;;;;34.60;19.98;;;;;;;;;;5075170;28;20027;-66
2021/10/26 05:49:17;;;;;;;36.47;19.38;;;;;;;;;;5075296;28;20072;-63
2021/10/26 05:51:43;;;;;;;31.95;18.75;;;;;;;;;;5074297;28;20078;-64
2021/10/26 05:54:09;;;;;;;37.03;19.92;;;;;;;;;;5074280;28;20036;-64
2021/10/26 05:56:35;;;;;;;33.90;19.63;;;;;;;;;;5074189;28;20024;-63
2021/10/26 05:59:01;;;;;;;36.40;19.73;;;;;;;;;;5074060;28;20031;-66
2021/10/26 06:01:27;;;;;;;35.75;19.48;;;;;;;;;;5075061;28;20020;-65
2021/10/26 06:03:53;;;;;;;32.85;19.35;;;;;;;;;;5076442;28;20103;-63
2021/10/26 06:06:19;;;;;;;30.90;16.88;;;;;;;;;;5074354;28;20027;-65
2021/10/26 06:08:47;;;;;;;34.42;18.60;;;;;;;;;;5074845;28;20460;-65
2021/10/26 06:11:15;;;;;;;34.47;16.85;;;;;;;;;;5063247;28;20025;-66
2021/10/26 06:13:45;;;;;;;31.25;17.73;;;;;;;;;;5056372;28;20012;-64
2021/10/26 06:16:11;;;;;;;34.63;18.50;;;;;;;;;;5074052;28;20024;-65
2021/10/26 06:18:37;;;;;;;33.90;18.35;;;;;;;;;;5073857;28;20047;-66
2021/10/26 06:21:03;;;;;;;33.03;17.58;;;;;;;;;;5074004;28;20035;-64
2021/10/26 06:23:30;;;;;;;34.25;17.70;;;;;;;;;;5073736;28;20079;-64
2021/10/26 06:25:59;;;;;;;36.78;18.42;;;;;;;;;;5073443;28;20066;-65
2021/10/26 06:28:25;;;;;;;33.63;19.58;;;;;;;;;;5054624;28;20224;-64
2021/10/26 06:30:51;;;;;;;37.30;18.38;;;;;;;;;;5053831;28;20031;-65
2021/10/26 06:33:17;;;;;;;34.75;19.42;;;;;;;;;;5053420;28;20120;-65
2021/10/26 06:35:43;;;;;;;34.42;19.95;;;;;;;;;;5053683;28;20060;-65
2021/10/26 06:38:09;;;;;;;33.67;17.60;;;;;;;;;;5053813;28;20037;-66
2021/10/26 06:40:36;;;;;;;35.28;19.17;;;;;;;;;;5053876;28;20031;-66
2021/10/26 06:43:02;;;;;;;35.40;18.88;;;;;;;;;;5054005;28;20025;-63
2021/10/26 06:45:28;;;;;;;38.95;19.73;;;;;;;;;;5073020;28;20027;-65
2021/10/26 06:47:54;;;;;;;35.92;18.65;;;;;;;;;;5073977;28;20024;-64
2021/10/26 06:50:20;;;;;;;33.88;17.80;;;;;;;;;;5070506;28;20402;-64
2021/10/26 06:52:46;;;;;;;34.08;19.10;;;;;;;;;;5073345;28;20035;-66
2021/10/26 06:55:19;;;;;;;34.30;20.13;;;;;;;;;;5073730;28;20036;-66
2021/10/26 06:57:47;;;;;;;29.02;15.10;;;;;;;;;;5073320;28;20073;-64
2021/10/26 07:00:14;;;;;;;33.58;17.27;;;;;;;;;;5073468;28;20077;-65
2021/10/26 07:02:47;;;;;;;33.10;17.98;;;;;;;;;;5073674;28;20020;-66
2021/10/26 07:05:15;;;;;;;32.92;18.98;;;;;;;;;;5073799;28;20059;-66
2021/10/26 07:07:41;;;;;;;31.17;18.25;;;;;;;;;;5073673;28;20174;-66
2021/10/26 07:10:07;;;;;;;33.42;18.70;;;;;;;;;;5073367;28;20054;-63
2021/10/26 07:12:34;;;;;;;34.42;18.27;;;;;;;;;;5073252;28;20024;-65
2021/10/26 07:15:02;;;;;;;32.38;18.60;;;;;;;;;;5073432;28;20031;-66
2021/10/26 07:17:28;;;;;;;30.40;17.63;;;;;;;;;;5070856;28;20016;-66
2021/10/26 07:19:54;;;;;;;38.22;17.25;;;;;;;;;;5055935;28;20266;-66
2021/10/26 07:22:20;;;;;;;31.52;16.55;;;;;;;;;;5071177;28;20096;-66
2021/10/26 07:24:55;;;;;;;35.33;18.83;;;;;;;;;;5052900;28;20496;-65
2021/10/26 07:27:21;;;;;;;29.10;15.45;;;;;;;;;;5072601;28;20039;-66
2021/10/26 07:29:47;;;;;;;35.03;16.88;;;;;;;;;;5073371;28;20024;-64
2021/10/26 07:32:13;;;;;;;35.20;19.15;;;;;;;;;;5073313;28;20024;-65
2021/10/26 07:34:39;;;;;;;30.88;17.80;;;;;;;;;;5073391;28;20111;-65
2021/10/26 07:37:06;;;;;;;29.67;16.60;;;;;;;;;;5072771;28;20067;-65
2021/10/26 07:39:33;;;;;;;34.28;16.73;;;;;;;;;;5073491;28;20017;-65
2021/10/26 07:42:00;;;;;;;29.35;14.82;;;;;;;;;;5073445;28;20047;-65
2021/10/26 07:44:28;;;;;;;30.98;16.27;;;;;;;;;;5069077;28;20176;-63
2021/10/26 07:46:56;;;;;;;33.70;15.90;;;;;;;;;;5053056;28;20029;-63
2021/10/26 07:49:22;;;;;;;31.23;17.97;;;;;;;;;;5052944;28;20024;-65
2021/10/26 07:51:48;;;;;;;29.67;15.13;;;;;;;;;;5053110;28;20077;-64
2021/10/26 07:54:14;;;;;;;32.60;16.15;;;;;;;;;;5052860;28;20071;-63
2021/10/26 07:56:40;;;;;;;29.80;15.35;;;;;;;;;;5053251;28;20017;-65
2021/10/26 07:59:06;;;;;;;30.85;15.48;;;;;;;;;;5053401;28;20143;-67
2021/10/26 08:01:32;;;;;;;27.30;15.38;;;;;;;;;;5053858;28;20044;-68
2021/10/26 08:03:58;;;;;;;31.48;15.77;;;;;;;;;;5053462;28;20020;-67
2021/10/26 08:06:25;;;;;;;28.17;14.65;;;;;;;;;;5053607;28;20106;-67
2021/10/26 08:08:51;;;;;;;33.10;15.20;;;;;;;;;;5053299;28;20025;-66
2021/10/26 08:11:18;;;;;;;29.10;15.40;;;;;;;;;;5060934;28;20024;-67
2021/10/26 08:13:45;;;;;;;30.38;16.40;;;;;;;;;;5073776;28;20048;-66
2021/10/26 08:16:11;;;;;;;29.98;14.88;;;;;;;;;;5073384;28;20065;-68
2021/10/26 08:18:37;;;;;;;27.90;14.32;;;;;;;;;;5073355;28;20063;-66
2021/10/26 08:21:03;;;;;;;27.30;14.18;;;;;;;;;;5073302;28;20437;-67
2021/10/26 08:23:29;;;;;;;26.73;14.18;;;;;;;;;;5073285;28;20023;-67
2021/10/26 08:25:58;;;;;;;26.77;14.93;;;;;;;;;;5070384;28;20047;-67
2021/10/26 08:28:24;;;;;;;31.00;16.33;;;;;;;;;;5067485;28;20427;-67
2021/10/26 08:31:03;;;;;;;31.88;15.60;;;;;;;;;;5074572;28;20028;-64
2021/10/26 08:35:58;;;;;;;31.15;16.10;;;;;;;;;;5092199;28;20540;-66
2021/10/26 08:38:24;;;;;;;29.58;16.63;;;;;;;;;;5096117;28;20019;-67
2021/10/26 08:40:50;;;;;;;37.38;17.75;;;;;;;;;;5077567;28;20012;-66
2021/10/26 08:43:21;;;;;;;28.45;13.55;;;;;;;;;;5077686;28;20024;-67
2021/10/26 08:45:48;;;;;;;28.73;15.45;;;;;;;;;;5094666;28;20344;-68
2021/10/26 08:48:21;;;;;;;28.95;15.23;;;;;;;;;;5084455;28;20024;-66
2021/10/26 08:50:56;;;;;;;31.90;14.60;;;;;;;;;;5071973;28;20020;-65
2021/10/26 08:53:23;;;;;;;26.02;14.77;;;;;;;;;;5089670;28;20020;-67
2021/10/26 08:55:58;;;;;;;33.13;15.48;;;;;;;;;;5076746;28;20095;-67
2021/10/26 08:58:25;;;;;;;25.40;14.05;;;;;;;;;;5094982;28;20016;-67
2021/10/26 09:00:52;;;;;;;27.75;13.73;;;;;;;;;;5095076;28;20028;-68
2021/10/26 09:03:19;;;;;;;27.92;13.25;;;;;;;;;;5095057;28;20065;-66
2021/10/26 09:05:46;;;;;;;29.25;14.70;;;;;;;;;;5077191;28;20028;-67
2021/10/26 09:08:13;;;;;;;27.70;14.20;;;;;;;;;;5076901;28;20063;-68
2021/10/26 09:10:39;;;;;;;29.33;14.55;;;;;;;;;;5092226;28;20062;-68
2021/10/26 09:18:47;;;;;;;28.40;13.50;;;;;;;;;;5074954;28;20082;-67
2021/10/26 09:21:30;;;;;;;29.45;14.48;;;;;;;;;;5056590;28;20468;-68
2021/10/26 09:23:57;;;;;;;27.90;14.00;;;;;;;;;;5074025;28;20055;-65
2021/10/26 09:26:42;;;;;;;24.27;12.60;;;;;;;;;;5073321;28;20051;-65
2021/10/26 09:29:08;;;;;;;27.45;15.13;;;;;;;;;;5073132;28;20087;-66
2021/10/26 09:31:36;;;;;;;31.75;13.93;;;;;;;;;;5073276;28;20023;-66
2021/10/26 09:34:20;;;;;;;25.37;13.00;;;;;;;;;;5073378;28;20460;-65
2021/10/26 09:36:47;;;;;;;26.63;12.20;;;;;;;;;;5072820;28;20384;-66
2021/10/26 09:39:15;;;;;;;26.83;12.30;;;;;;;;;;5054911;28;20055;-65
2021/10/26 09:41:53;;;;;;;29.70;13.07;;;;;;;;;;5054858;28;20107;-66
2021/10/26 09:44:19;;;;;;;;;;;;;;;;;;5055411;28;20028;-66
2021/10/26 09:46:53;;;;;;;25.40;12.35;;;;;;;;;;5054368;28;19950;-65
2021/10/26 09:49:26;;;;;;;25.35;12.98;;;;;;;;;;5055050;28;20083;-66
2021/10/26 09:52:09;;;;;;;23.00;11.23;;;;;;;;;;5054899;28;20032;-66
2021/10/26 10:25:12;;;;;;;28.55;13.88;;;;;;;;;;5072363;28;20070;-68
2021/10/26 10:27:41;;;;;;;25.88;13.07;;;;;;;;;;5053913;28;20020;-67
2021/10/26 10:30:11;;;;;;;28.98;15.20;;;;;;;;;;5054091;28;20020;-65
2021/10/26 10:32:40;;;;;;;25.48;15.70;;;;;;;;;;5054185;28;20145;-66
2021/10/26 10:35:12;;;;;;;25.63;14.70;;;;;;;;;;5054353;28;20035;-66
2021/10/26 10:37:41;;;;;;;27.13;14.23;;;;;;;;;;5053445;28;20082;-66
2021/10/26 10:40:08;;;;;;;25.55;13.57;;;;;;;;;;5053977;28;20053;-67
2021/10/26 10:42:44;;;;;;;26.42;14.68;;;;;;;;;;5053829;28;20024;-67
2021/10/26 10:45:39;;;;;;;25.30;14.43;;;;;;;;;;5053629;28;20031;-66
2021/10/26 10:48:25;;;;;;;30.42;14.93;;;;;;;;;;5058676;28;20041;-67
2021/10/26 10:51:11;;;;;;;27.35;16.83;;;;;;;;;;5052260;28;20020;-64
2021/10/26 10:53:38;;;;;;;25.95;15.63;;;;;;;;;;5052931;28;20020;-67
2021/10/26 10:56:20;;;;;;;25.77;15.38;;;;;;;;;;5054042;28;20024;-66
2021/10/26 10:58:46;;;;;;;28.35;16.42;;;;;;;;;;5053632;28;20402;-67
2021/10/26 11:01:26;;;;;;;24.17;16.10;;;;;;;;;;5102274;22;20598;-65
2021/10/26 11:03:53;;;;;;;26.52;17.85;;;;;;;;;;5073051;28;20020;-67
2021/10/26 11:06:38;;;;;;;28.17;17.20;;;;;;;;;;5072659;28;20023;-67
2021/10/26 11:09:24;;;;;;;25.23;16.63;;;;;;;;;;4701625;28;10000396;-67
2021/10/26 11:12:12;;;;;;;26.08;14.45;;;;;;;;;;5041820;28;20267;-68
2021/10/26 11:14:55;;;;;;;24.13;16.00;;;;;;;;;;5049487;28;20392;-68
2021/10/26 11:17:39;;;;;;;30.95;15.52;;;;;;;;;;5049660;28;20028;-62
2021/10/26 11:20:09;;;;;;;25.08;14.25;;;;;;;;;;5049557;28;20496;-68
2021/10/26 11:22:47;;;;;;;24.27;14.02;;;;;;;;;;5050107;28;20036;-67
2021/10/26 11:25:20;;;;;;;29.48;14.32;;;;;;;;;;5049673;28;20032;-68
2021/10/26 11:27:46;;;;;;;27.30;14.35;;;;;;;;;;5050044;28;20041;-67
2021/10/26 11:30:27;;;;;;;26.42;15.23;;;;;;;;;;5049786;28;20111;-67
2021/10/26 11:33:12;;;;;;;25.50;16.02;;;;;;;;;;5050034;28;20119;-68
2021/10/26 11:35:51;;;;;;;26.70;15.27;;;;;;;;;;5049757;28;20033;-64
2021/10/26 11:38:18;;;;;;;26.25;15.00;;;;;;;;;;5050141;28;20025;-68
2021/10/26 11:41:02;;;;;;;24.63;14.43;;;;;;;;;;5050285;28;20416;-68
2021/10/26 11:43:49;;;;;;;26.25;13.65;;;;;;;;;;5049683;28;20036;-67
2021/10/26 11:46:16;;;;;;;24.05;14.55;;;;;;;;;;5049395;28;20028;-68
2021/10/26 11:48:50;;;;;;;25.65;14.27;;;;;;;;;;5049834;28;20035;-67
2021/10/26 11:51:17;;;;;;;24.17;12.27;;;;;;;;;;5049124;28;20051;-68
2021/10/26 11:53:43;;;;;;;25.45;13.23;;;;;;;;;;5049645;28;20100;-69
2021/10/26 11:56:19;;;;;;;21.75;12.20;;;;;;;;;;5049165;28;20039;-69
2021/10/26 11:59:17;;;;;;;23.77;14.05;;;;;;;;;;5049852;28;20116;-70
2021/10/26 12:01:52;;;;;;;38.45;16.08;;;;;;;;;;4995400;28;20488;-67
2021/10/26 12:04:18;;;;;;;24.42;14.43;;;;;;;;;;5050046;28;20044;-68
2021/10/26 12:06:44;;;;;;;22.58;14.68;;;;;;;;;;5049609;28;20127;-68
2021/10/26 12:09:11;;;;;;;25.63;14.40;;;;;;;;;;5049500;28;20059;-68
2021/10/26 12:11:39;;;;;;;27.98;13.48;;;;;;;;;;5062997;28;20058;-68
2021/10/26 12:14:18;;;;;;;25.38;13.57;;;;;;;;;;5073205;28;20106;-67
2021/10/26 12:17:03;;;;;;;23.75;12.80;;;;;;;;;;5073254;28;20015;-67
2021/10/26 12:19:29;;;;;;;26.35;13.50;;;;;;;;;;5073369;28;20028;-69
2021/10/26 12:21:59;;;;;;;24.70;13.85;;;;;;;;;;5073329;28;20056;-67
2021/10/26 12:24:25;;;;;;;27.98;14.43;;;;;;;;;;5073591;28;20106;-69
2021/10/26 12:26:59;;;;;;;25.27;14.38;;;;;;;;;;5073335;28;20035;-68
2021/10/26 12:29:30;;;;;;;23.90;14.85;;;;;;;;;;5073267;28;20506;-67
2021/10/26 12:31:56;;;;;;;24.52;14.45;;;;;;;;;;5092827;28;20206;-68
2021/10/26 12:34:22;;;;;;;23.58;13.48;;;;;;;;;;5092945;28;20099;-67
2021/10/26 12:36:48;;;;;;;20.00;12.35;;;;;;;;;;5073058;28;20532;-67
2021/10/26 12:39:22;;;;;;;24.17;12.90;;;;;;;;;;5073687;28;20050;-68
2021/10/26 12:41:48;;;;;;;22.80;13.02;;;;;;;;;;5051352;28;20540;-66
2021/10/26 12:44:18;;;;;;;21.25;12.32;;;;;;;;;;5053992;28;20425;-67
2021/10/26 12:46:44;;;;;;;26.25;13.05;;;;;;;;;;5071655;28;20032;-68
2021/10/26 12:49:12;;;;;;;21.75;11.95;;;;;;;;;;5071719;28;20020;-68
2021/10/26 12:51:39;;;;;;;20.63;12.25;;;;;;;;;;5053883;28;20066;-68
2021/10/26 12:54:11;;;;;;;24.17;12.30;;;;;;;;;;5053631;28;20419;-67
2021/10/26 12:56:45;;;;;;;22.38;12.90;;;;;;;;;;5064901;28;20012;-67
2021/10/26 12:59:11;;;;;;;23.10;12.10;;;;;;;;;;5062051;28;20025;-68
2021/10/26 13:01:40;;;;;;;22.83;14.15;;;;;;;;;;5043708;28;20032;-67
2021/10/26 13:04:19;;;;;;;24.67;14.35;;;;;;;;;;5062428;28;20020;-68
2021/10/26 13:06:50;;;;;;;23.10;14.70;;;;;;;;;;5041006;28;20016;-66
2021/10/26 13:09:22;;;;;;;23.85;14.30;;;;;;;;;;5061790;28;20017;-68
2021/10/26 13:11:49;;;;;;;23.10;13.35;;;;;;;;;;5065948;28;20102;-66
2021/10/26 13:14:16;;;;;;;22.27;14.25;;;;;;;;;;5040447;28;20081;-66
2021/10/26 13:16:46;;;;;;;23.55;13.38;;;;;;;;;;5070186;28;20586;-65
2021/10/26 13:19:13;;;;;;;25.88;13.73;;;;;;;;;;5070869;28;20129;-68
2021/10/26 13:21:40;;;;;;;23.65;11.43;;;;;;;;;;5070320;28;20021;-68
2021/10/26 13:24:06;;;;;;;21.75;11.15;;;;;;;;;;5053015;28;20031;-67
2021/10/26 13:26:33;;;;;;;18.25;10.50;;;;;;;;;;5053206;28;20024;-67
2021/10/26 13:29:00;;;;;;;21.67;11.30;;;;;;;;;;5071236;28;20020;-67
2021/10/26 13:31:26;;;;;;;20.80;10.60;;;;;;;;;;5052838;28;20034;-67
2021/10/26 13:33:52;;;;;;;30.00;12.02;;;;;;;;;;5068862;28;20024;-69
2021/10/26 13:36:19;;;;;;;20.70;11.20;;;;;;;;;;5060376;28;20090;-69
2021/10/26 13:38:45;;;;;;;22.27;11.68;;;;;;;;;;5059114;28;20021;-64
2021/10/26 13:41:12;;;;;;;18.65;11.18;;;;;;;;;;5060456;28;20095;-67
2021/10/26 13:43:39;;;;;;;21.33;11.15;;;;;;;;;;5060503;28;20636;-67
2021/10/26 13:46:07;;;;;;;20.88;10.55;;;;;;;;;;5060888;28;20356;-65
2021/10/26 13:48:34;;;;;;;22.13;10.73;;;;;;;;;;5059050;28;20108;-68
2021/10/26 13:51:00;;;;;;;18.45;10.90;;;;;;;;;;5058915;28;20020;-68
2021/10/26 13:53:26;;;;;;;18.55;9.35;;;;;;;;;;5042546;28;20021;-67
2021/10/26 13:55:56;;;;;;;19.67;9.70;;;;;;;;;;5040874;28;20103;-67
2021/10/26 13:58:22;;;;;;;19.48;9.02;;;;;;;;;;5040059;28;20054;-67
2021/10/26 14:00:50;;;;;;;18.52;9.90;;;;;;;;;;5060788;28;20436;-68
2021/10/26 14:03:17;;;;;;;18.13;10.75;;;;;;;;;;5070367;28;20009;-67
2021/10/26 14:05:43;;;;;;;19.00;10.15;;;;;;;;;;5070031;28;20496;-66
2021/10/26 14:08:09;;;;;;;19.27;10.10;;;;;;;;;;5051644;28;20039;-67
2021/10/26 14:10:36;;;;;;;21.00;11.10;;;;;;;;;;5071329;28;20020;-67
2021/10/26 14:13:02;;;;;;;20.33;10.40;;;;;;;;;;5089227;28;20055;-67
2021/10/26 14:15:28;;;;;;;17.45;10.10;;;;;;;;;;5051793;28;20031;-68
2021/10/26 14:17:54;;;;;;;21.83;10.55;;;11.30;99.90;;;;;;5052033;28;20024;-70
2021/10/26 14:20:22;;;;;;;22.20;9.85;;;;;;;;;;5046671;28;20392;-66
2021/10/26 14:22:49;;;;;;;18.77;10.45;;;;;;;;;;5041798;28;20031;-67
2021/10/26 14:25:16;;;;;;;19.33;9.57;;;;;;;;;;5039759;28;20080;-67
2021/10/26 14:27:42;;;;;;;22.45;9.77;;;;;;;;;;5057014;28;20096;-66
2021/10/26 14:30:09;;;;;;;18.55;10.05;;;;;;;;;;5051256;28;20025;-66
2021/10/26 14:32:35;;;;;;;19.38;8.82;;;;;;;;;;5033011;28;20052;-68
2021/10/26 14:35:07;;;;;;;17.13;7.78;;;;;;;;;;4717955;28;9999638;-69
2021/10/26 14:40:18;;;;;;;16.38;8.60;;;;;;;;;;5068774;28;20021;-70
2021/10/26 14:52:35;;;;;;;17.65;8.55;;;;;;;;;;5050351;28;20088;-67
2021/10/26 14:53:45;;;;;;;16.75;7.40;;;;;;;;;;5069008;28;20121;-69
2021/10/26 14:56:11;;;;;;;21.58;7.80;;;;;;;;;;5051146;28;20020;-67
2021/10/26 14:58:38;;;;;;;22.85;8.85;;;;;;;;;;5051173;28;20165;-66
2021/10/26 15:01:08;;;;;;;20.77;8.60;;;;;;;;;;5068721;28;20498;-68
2021/10/26 15:03:37;;;;;;;18.95;7.65;;;;;;;;;;5050616;28;20072;-66
2021/10/26 15:06:04;;;;;;;17.92;7.72;;;;;;;;;;5049925;28;20028;-65
2021/10/26 15:08:35;;;;;;;18.70;8.13;;;;;;;;;;5067906;28;20016;-71
2021/10/26 15:13:41;;;;;;;20.83;9.10;;;;;;;;;;5067302;28;20096;-65
2021/10/26 15:16:08;;;;;;;19.48;8.05;;;;;;;;;;5067210;28;20024;-70
2021/10/26 15:18:36;;;;;;;16.33;7.35;;;;;;;;;;5049845;28;20428;-68